createdAt,value
2022-12-03T00:00:57.060Z,18.97
2022-12-03T00:03:23.861Z,18.17
2022-12-03T00:05:50.827Z,18.33
2022-12-03T00:08:17.617Z,16.53
2022-12-03T00:10:44.440Z,17.13
2022-12-03T00:13:11.147Z,17.77
2022-12-03T00:15:38.032Z,18.33
2022-12-03T00:18:04.981Z,16.93
2022-12-03T00:20:31.718Z,17.10
2022-12-03T00:22:58.463Z,17.77
2022-12-03T00:25:25.199Z,18.57
2022-12-03T00:27:51.953Z,17.10
2022-12-03T00:30:18.810Z,17.77
2022-12-03T00:32:45.676Z,18.40
2022-12-03T00:35:12.518Z,18.33
2022-12-03T00:37:39.199Z,18.97
2022-12-03T00:40:07.987Z,19.17
2022-12-03T00:42:34.822Z,18.70
2022-12-03T00:45:01.531Z,19.93
2022-12-03T00:47:28.304Z,19.10
2022-12-03T00:50:00.358Z,19.53
2022-12-03T00:52:27.072Z,19.43
2022-12-03T00:54:55.142Z,19.30
2022-12-03T00:57:22.038Z,19.07
2022-12-03T00:59:48.736Z,18.90
2022-12-03T01:02:15.574Z,19.43
2022-12-03T01:04:43.440Z,20.20
2022-12-03T01:07:10.351Z,20.30
2022-12-03T01:09:37.083Z,19.37
2022-12-03T01:12:03.910Z,19.50
2022-12-03T01:14:30.971Z,20.20
2022-12-03T01:16:57.710Z,20.10
2022-12-03T01:19:24.966Z,20.17
2022-12-03T01:21:52.462Z,21.23
2022-12-03T01:24:19.651Z,20.17
2022-12-03T01:26:46.610Z,19.53
2022-12-03T01:29:13.855Z,19.73
2022-12-03T01:31:59.244Z,19.20
2022-12-03T01:34:26.059Z,19.47
2022-12-03T01:36:52.952Z,18.27
2022-12-03T01:39:20.202Z,20.30
2022-12-03T01:41:48.356Z,20.00
2022-12-03T01:44:18.911Z,18.20
2022-12-03T01:46:46.782Z,17.53
2022-12-03T01:49:27.418Z,19.33
2022-12-03T01:51:55.531Z,19.17
2022-12-03T01:54:35.797Z,19.27
2022-12-03T01:57:02.799Z,18.80
2022-12-03T01:59:35.572Z,19.13
2022-12-03T02:02:27.318Z,18.83
2022-12-03T02:04:54.849Z,19.93
2022-12-03T02:07:33.558Z,19.17
2022-12-03T02:10:03.812Z,19.43
2022-12-03T02:12:42.081Z,18.77
2022-12-03T02:15:10.373Z,17.73
2022-12-03T02:17:38.080Z,17.53
2022-12-03T02:20:07.960Z,19.47
2022-12-03T02:22:46.320Z,19.30
2022-12-03T02:25:14.212Z,18.27
2022-12-03T02:27:41.699Z,19.67
2022-12-03T02:30:10.321Z,19.60
2022-12-03T02:32:37.554Z,21.20
2022-12-03T02:35:04.916Z,19.90
2022-12-03T02:37:35.977Z,19.10
2022-12-03T02:40:10.236Z,20.23
2022-12-03T02:42:38.628Z,21.03
2022-12-03T02:45:33.773Z,19.73
2022-12-03T02:48:08.721Z,19.43
2022-12-03T02:50:42.394Z,19.37
2022-12-03T02:53:20.026Z,19.50
2022-12-03T02:55:48.422Z,21.00
2022-12-03T02:58:16.805Z,20.97
2022-12-03T03:00:45.731Z,19.90
2022-12-03T03:03:13.214Z,21.03
2022-12-03T03:05:41.495Z,21.27
2022-12-03T03:08:10.114Z,20.67
2022-12-03T03:10:39.066Z,21.00
2022-12-03T03:13:16.807Z,20.47
2022-12-03T03:15:43.813Z,20.03
2022-12-03T03:18:12.519Z,21.17
2022-12-03T03:20:40.370Z,22.00
2022-12-03T03:23:13.328Z,21.73
2022-12-03T03:25:43.684Z,20.80
2022-12-03T03:28:11.182Z,21.33
2022-12-03T03:30:39.657Z,20.37
2022-12-03T03:33:07.029Z,21.30
2022-12-03T03:35:34.149Z,20.07
2022-12-03T03:38:01.010Z,21.37
2022-12-03T03:40:28.179Z,21.67
2022-12-03T03:42:56.018Z,21.90
2022-12-03T03:45:28.885Z,21.50
2022-12-03T03:47:57.986Z,21.67
2022-12-03T03:50:25.576Z,22.30
2022-12-03T03:52:52.747Z,20.87
2022-12-03T03:55:20.452Z,21.97
2022-12-03T03:57:48.999Z,22.60
2022-12-03T04:00:16.091Z,22.67
2022-12-03T04:02:43.737Z,22.23
2022-12-03T04:05:20.005Z,22.00
2022-12-03T04:07:47.470Z,22.63
2022-12-03T04:10:33.727Z,22.27
2022-12-03T04:13:01.296Z,21.83
2022-12-03T04:15:28.298Z,24.23
2022-12-03T04:18:14.212Z,22.83
2022-12-03T04:20:41.129Z,24.67
2022-12-03T04:23:08.706Z,24.37
2022-12-03T04:25:53.896Z,23.07
2022-12-03T04:28:39.510Z,24.47
2022-12-03T04:31:25.285Z,24.70
2022-12-03T04:34:11.415Z,25.20
2022-12-03T04:36:38.635Z,23.40
2022-12-03T04:39:05.371Z,24.50
2022-12-03T04:41:32.108Z,24.13
2022-12-03T04:44:17.768Z,25.60
2022-12-03T04:46:45.550Z,23.80
2022-12-03T04:49:12.251Z,23.70
2022-12-03T04:51:39.090Z,23.23
2022-12-03T04:54:06.121Z,24.97
2022-12-03T04:56:32.949Z,22.90
2022-12-03T04:58:59.708Z,24.13
2022-12-03T05:01:26.487Z,23.97
2022-12-03T05:03:53.264Z,23.80
2022-12-03T05:06:20.009Z,24.77
2022-12-03T05:08:46.768Z,21.63
2022-12-03T05:11:13.642Z,22.27
2022-12-03T05:13:40.361Z,26.83
2022-12-03T05:16:07.389Z,21.73
2022-12-03T05:18:34.101Z,21.10
2022-12-03T05:21:00.846Z,23.07
2022-12-03T05:23:28.173Z,22.60
2022-12-03T05:25:54.975Z,24.20
2022-12-03T05:28:23.208Z,21.63
2022-12-03T05:30:50.928Z,22.77
2022-12-03T05:33:17.962Z,23.30
2022-12-03T05:35:44.868Z,22.13
2022-12-03T05:38:11.667Z,22.30
2022-12-03T05:40:38.610Z,21.43
2022-12-03T05:43:05.426Z,22.87
2022-12-03T05:45:39.860Z,21.70
2022-12-03T05:48:09.739Z,20.43
2022-12-03T05:50:37.747Z,22.50
2022-12-03T05:53:04.781Z,23.23
2022-12-03T05:55:31.897Z,23.07
2022-12-03T05:57:58.748Z,22.53
2022-12-03T06:00:28.569Z,20.67
2022-12-03T06:02:55.694Z,21.87
2022-12-03T06:05:23.762Z,22.70
2022-12-03T06:07:52.270Z,21.07
2022-12-03T06:10:21.997Z,20.50
2022-12-03T06:12:48.709Z,21.60
2022-12-03T06:15:15.659Z,21.10
2022-12-03T06:17:42.449Z,21.70
2022-12-03T06:20:13.542Z,21.63
2022-12-03T06:22:40.483Z,21.53
2022-12-03T06:25:07.683Z,22.13
2022-12-03T06:27:35.413Z,24.83
2022-12-03T06:30:02.836Z,22.10
2022-12-03T06:32:29.800Z,23.27
2022-12-03T06:34:56.678Z,23.10
2022-12-03T06:37:23.464Z,24.13
2022-12-03T06:39:52.758Z,23.70
2022-12-03T06:42:19.425Z,21.40
2022-12-03T06:44:46.074Z,23.27
2022-12-03T06:47:12.771Z,22.60
2022-12-03T06:49:39.476Z,23.10
2022-12-03T06:52:06.348Z,23.67
2022-12-03T06:54:33.080Z,22.23
2022-12-03T06:57:05.988Z,23.87
2022-12-03T06:59:35.590Z,23.00
2022-12-03T07:02:03.823Z,22.60
2022-12-03T07:04:31.056Z,23.27
2022-12-03T07:06:59.067Z,24.53
2022-12-03T07:09:25.974Z,22.97
2022-12-03T07:11:53.016Z,24.30
2022-12-03T07:14:20.025Z,25.80
2022-12-03T07:16:47.593Z,24.07
2022-12-03T07:19:14.804Z,25.03
2022-12-03T07:21:41.677Z,25.40
2022-12-03T07:24:08.552Z,25.07
2022-12-03T07:26:35.241Z,24.20
2022-12-03T07:29:02.011Z,24.60
2022-12-03T07:31:28.922Z,25.10
2022-12-03T07:33:55.625Z,23.90
2022-12-03T07:36:22.343Z,25.20
2022-12-03T07:38:49.305Z,24.67
2022-12-03T07:41:15.964Z,23.30
2022-12-03T07:43:42.763Z,23.63
2022-12-03T07:46:09.614Z,24.80
2022-12-03T07:48:36.379Z,24.17
2022-12-03T07:51:05.958Z,24.10
2022-12-03T07:53:32.775Z,24.53
2022-12-03T07:55:59.498Z,24.30
2022-12-03T07:58:26.192Z,24.30
2022-12-03T08:00:53.036Z,24.57
2022-12-03T08:03:19.793Z,24.63
2022-12-03T08:05:46.511Z,24.03
2022-12-03T08:08:13.381Z,23.93
2022-12-03T08:10:40.221Z,23.03
2022-12-03T08:13:15.671Z,24.40
2022-12-03T08:15:43.125Z,23.93
2022-12-03T08:18:16.397Z,24.17
2022-12-03T08:20:45.100Z,25.50
2022-12-03T08:23:29.923Z,24.83
2022-12-03T08:26:02.019Z,23.57
2022-12-03T08:28:28.753Z,23.97
2022-12-03T08:31:03.319Z,23.43
2022-12-03T08:33:35.930Z,23.77
2022-12-03T08:36:21.482Z,21.60
2022-12-03T08:38:55.042Z,22.67
2022-12-03T08:41:41.924Z,24.67
2022-12-03T08:44:28.298Z,22.97
2022-12-03T08:47:10.019Z,22.63
2022-12-03T08:49:37.528Z,22.00
2022-12-03T08:52:15.919Z,22.83
2022-12-03T08:54:47.646Z,21.40
2022-12-03T08:57:34.419Z,22.33
2022-12-03T09:00:22.542Z,22.17
2022-12-03T09:02:55.287Z,21.27
2022-12-03T09:05:26.142Z,24.73
2022-12-03T09:07:52.887Z,22.67
2022-12-03T09:10:19.621Z,22.23
2022-12-03T09:12:46.382Z,18.93
2022-12-03T09:15:13.149Z,19.57
2022-12-03T09:17:39.887Z,21.63
2022-12-03T09:20:07.367Z,19.63
2022-12-03T09:22:34.146Z,20.70
2022-12-03T09:25:00.843Z,19.47
2022-12-03T09:27:27.535Z,16.97
2022-12-03T09:29:54.208Z,20.23
2022-12-03T09:32:21.025Z,18.20
2022-12-03T09:34:47.840Z,18.77
2022-12-03T09:37:14.567Z,19.90
2022-12-03T09:39:41.248Z,18.10
2022-12-03T09:42:08.456Z,20.00
2022-12-03T09:44:36.172Z,19.17
2022-12-03T09:47:04.841Z,19.93
2022-12-03T09:49:33.489Z,18.50
2022-12-03T09:52:03.088Z,19.17
2022-12-03T09:54:30.880Z,19.80
2022-12-03T09:57:00.825Z,20.37
2022-12-03T09:59:33.232Z,18.60
2022-12-03T10:02:00.639Z,17.00
2022-12-03T10:04:31.480Z,20.13
2022-12-03T10:06:59.039Z,18.50
2022-12-03T10:09:28.230Z,17.93
2022-12-03T10:11:57.265Z,20.03
2022-12-03T10:14:24.097Z,21.53
2022-12-03T10:16:50.987Z,18.43
2022-12-03T10:19:30.332Z,20.00
2022-12-03T10:21:57.399Z,19.23
2022-12-03T10:24:33.188Z,20.80
2022-12-03T10:27:02.074Z,19.20
2022-12-03T10:29:35.062Z,20.33
2022-12-03T10:32:08.217Z,20.47
2022-12-03T10:34:40.435Z,18.63
2022-12-03T10:37:14.692Z,20.33
2022-12-03T10:40:10.903Z,21.13
2022-12-03T10:42:39.981Z,20.70
2022-12-03T10:45:20.577Z,21.73
2022-12-03T10:48:27.393Z,20.03
2022-12-03T10:51:10.156Z,20.90
2022-12-03T10:53:39.655Z,20.40
2022-12-03T10:56:08.292Z,20.87
2022-12-03T10:58:37.780Z,22.33
2022-12-03T11:01:15.813Z,20.27
2022-12-03T11:03:42.720Z,21.00
2022-12-03T11:06:15.374Z,21.23
2022-12-03T11:08:54.752Z,19.13
2022-12-03T11:11:28.905Z,18.83
2022-12-03T11:13:58.152Z,19.63
2022-12-03T11:16:40.190Z,17.73
2022-12-03T11:19:12.914Z,16.90
2022-12-03T11:22:05.739Z,16.20
2022-12-03T11:24:41.540Z,14.80
2022-12-03T11:27:18.625Z,17.10
2022-12-03T11:30:01.820Z,17.50
2022-12-03T11:32:43.719Z,17.83
2022-12-03T11:35:23.665Z,16.27
2022-12-03T11:37:50.451Z,18.67
2022-12-03T11:40:17.236Z,20.33
2022-12-03T11:42:45.827Z,21.23
2022-12-03T11:45:27.860Z,18.40
2022-12-03T11:48:04.909Z,19.43
2022-12-03T11:50:40.376Z,19.60
2022-12-03T11:53:23.703Z,20.03
2022-12-03T11:56:08.905Z,21.70
2022-12-03T11:58:38.682Z,25.87
2022-12-03T12:01:07.747Z,25.20
2022-12-03T12:03:43.561Z,25.33
2022-12-03T12:06:13.307Z,26.17
2022-12-03T12:08:50.885Z,27.10
2022-12-03T12:11:26.846Z,24.47
2022-12-03T12:14:03.839Z,26.17
2022-12-03T12:16:55.483Z,24.67
2022-12-03T12:19:32.761Z,25.27
2022-12-03T12:22:28.636Z,25.17
2022-12-03T12:25:02.894Z,22.87
2022-12-03T12:27:31.241Z,24.50
2022-12-03T12:30:00.623Z,23.53
2022-12-03T12:32:34.123Z,22.90
2022-12-03T12:35:16.450Z,24.53
2022-12-03T12:38:12.687Z,21.70
2022-12-03T12:40:41.599Z,21.97
2022-12-03T12:43:23.452Z,20.80
2022-12-03T12:45:55.217Z,19.43
2022-12-03T12:48:23.402Z,19.30
2022-12-03T12:50:58.605Z,19.67
2022-12-03T12:53:31.709Z,18.57
2022-12-03T12:56:01.022Z,18.10
2022-12-03T12:58:32.334Z,17.27
2022-12-03T13:01:04.318Z,17.00
2022-12-03T13:03:34.907Z,17.60
2022-12-03T13:06:02.024Z,16.70
2022-12-03T13:08:39.000Z,17.47
2022-12-03T13:11:06.455Z,15.77
2022-12-03T13:13:43.629Z,16.90
2022-12-03T13:16:31.281Z,15.43
2022-12-03T13:19:02.040Z,16.47
2022-12-03T13:21:40.231Z,17.10
2022-12-03T13:24:35.224Z,16.23
2022-12-03T13:27:29.524Z,16.07
2022-12-03T13:30:01.132Z,15.93
2022-12-03T13:32:35.970Z,16.17
2022-12-03T13:35:09.840Z,16.13
2022-12-03T13:37:37.506Z,17.00
2022-12-03T13:40:36.272Z,14.90
2022-12-03T13:43:18.677Z,17.20
2022-12-03T13:45:47.285Z,19.03
2022-12-03T13:48:23.012Z,18.47
2022-12-03T13:50:51.562Z,18.73
2022-12-03T13:53:28.055Z,17.63
2022-12-03T13:56:04.163Z,20.33
2022-12-03T13:58:30.862Z,20.87
2022-12-03T14:00:57.546Z,21.33
2022-12-03T14:03:24.364Z,21.90
2022-12-03T14:05:51.039Z,22.13
2022-12-03T14:08:17.836Z,23.07
2022-12-03T14:10:44.700Z,23.20
2022-12-03T14:13:11.385Z,23.80
2022-12-03T14:15:38.114Z,25.57
2022-12-03T14:18:04.874Z,26.30
2022-12-03T14:20:32.101Z,25.30
2022-12-03T14:22:59.622Z,25.83
2022-12-03T14:25:27.038Z,26.83
2022-12-03T14:27:53.730Z,26.20
2022-12-03T14:30:20.558Z,26.50
2022-12-03T14:32:47.420Z,26.40
2022-12-03T14:35:14.285Z,25.27
2022-12-03T14:37:41.031Z,27.13
2022-12-03T14:40:09.064Z,27.03
2022-12-03T14:42:36.553Z,26.83
2022-12-03T14:45:03.717Z,28.93
2022-12-03T14:47:30.395Z,27.87
2022-12-03T14:49:57.289Z,29.07
2022-12-03T14:52:24.153Z,28.67
2022-12-03T14:54:50.864Z,26.80
2022-12-03T14:57:17.761Z,25.60
2022-12-03T14:59:46.986Z,25.53
2022-12-03T15:02:16.497Z,28.43
2022-12-03T15:04:43.216Z,25.47
2022-12-03T15:07:09.983Z,24.33
2022-12-03T15:09:36.687Z,27.30
2022-12-03T15:12:04.644Z,25.67
2022-12-03T15:14:31.393Z,26.77
2022-12-03T15:16:58.131Z,26.70
2022-12-03T15:19:24.964Z,28.40
2022-12-03T15:21:51.723Z,27.10
2022-12-03T15:24:18.501Z,27.83
2022-12-03T15:26:45.251Z,28.07
2022-12-03T15:29:12.153Z,24.60
2022-12-03T15:31:38.926Z,26.10
2022-12-03T15:34:05.677Z,26.40
2022-12-03T15:36:32.364Z,26.47
2022-12-03T15:38:59.109Z,26.00
2022-12-03T15:41:29.473Z,26.27
2022-12-03T15:43:58.534Z,27.07
2022-12-03T15:46:27.745Z,26.73
2022-12-03T15:48:55.577Z,26.23
2022-12-03T15:51:22.827Z,25.53
2022-12-03T15:53:49.739Z,25.17
2022-12-03T15:56:16.683Z,28.00
2022-12-03T15:58:43.487Z,27.40
2022-12-03T16:01:13.300Z,25.57
2022-12-03T16:03:40.187Z,25.83
2022-12-03T16:06:07.155Z,25.60
2022-12-03T16:08:33.856Z,25.83
2022-12-03T16:11:00.576Z,24.83
2022-12-03T16:13:27.279Z,26.10
2022-12-03T16:15:54.056Z,27.87
2022-12-03T16:18:20.802Z,27.90
2022-12-03T16:20:47.649Z,27.53
2022-12-03T16:23:14.441Z,26.67
2022-12-03T16:25:41.221Z,25.97
2022-12-03T16:28:08.235Z,25.20
2022-12-03T16:30:36.047Z,27.40
2022-12-03T16:33:02.848Z,26.17
2022-12-03T16:35:30.804Z,28.47
2022-12-03T16:37:57.575Z,28.07
2022-12-03T16:40:24.289Z,25.47
2022-12-03T16:42:50.964Z,25.90
2022-12-03T16:45:40.735Z,27.23
2022-12-03T16:48:07.424Z,26.63
2022-12-03T16:50:37.175Z,26.80
2022-12-03T16:53:04.130Z,25.50
2022-12-03T16:55:30.903Z,25.40
2022-12-03T16:57:57.603Z,26.87
2022-12-03T17:00:26.334Z,27.73
2022-12-03T17:02:53.080Z,26.20
2022-12-03T17:05:19.836Z,26.60
2022-12-03T17:07:46.575Z,27.53
2022-12-03T17:10:13.456Z,23.60
2022-12-03T17:13:07.676Z,26.53
2022-12-03T17:15:26.923Z,24.70
2022-12-03T17:17:53.681Z,25.37
2022-12-03T17:20:20.423Z,26.93
2022-12-03T17:22:47.217Z,25.17
2022-12-03T17:25:14.207Z,24.87
2022-12-03T17:27:45.181Z,26.70
2022-12-03T17:30:12.573Z,24.97
2022-12-03T17:32:39.420Z,28.10
2022-12-03T17:35:06.725Z,24.30
2022-12-03T17:37:33.543Z,25.53
2022-12-03T17:40:00.332Z,25.20
2022-12-03T17:42:27.085Z,24.53
2022-12-03T17:44:53.798Z,25.50
2022-12-03T17:47:20.538Z,25.37
2022-12-03T17:49:47.238Z,27.13
2022-12-03T17:52:14.047Z,25.00
2022-12-03T17:55:08.343Z,26.63
2022-12-03T17:57:27.605Z,25.93
2022-12-03T17:59:54.408Z,24.90
2022-12-03T18:02:21.399Z,25.10
2022-12-03T18:04:48.108Z,24.10
2022-12-03T18:07:14.849Z,24.37
2022-12-03T18:09:42.239Z,24.77
2022-12-03T18:12:08.957Z,25.43
2022-12-03T18:14:35.661Z,27.03
2022-12-03T18:17:02.355Z,25.00
2022-12-03T18:19:29.106Z,24.93
2022-12-03T18:21:55.884Z,24.77
2022-12-03T18:24:22.746Z,24.23
2022-12-03T18:26:50.453Z,24.73
2022-12-03T18:29:17.294Z,25.73
2022-12-03T18:31:44.201Z,25.03
2022-12-03T18:34:10.934Z,25.00
2022-12-03T18:36:37.987Z,25.10
2022-12-03T18:39:09.360Z,25.80
2022-12-03T18:41:36.780Z,23.97
2022-12-03T18:44:09.522Z,24.17
2022-12-03T18:46:53.822Z,24.33
2022-12-03T18:49:20.932Z,24.90
2022-12-03T18:51:48.526Z,24.63
2022-12-03T18:54:15.735Z,24.70
2022-12-03T18:56:42.483Z,24.80
2022-12-03T18:59:09.466Z,23.60
2022-12-03T19:01:36.610Z,24.07
2022-12-03T19:04:03.799Z,24.47
2022-12-03T19:06:33.435Z,24.33
2022-12-03T19:09:00.361Z,24.20
2022-12-03T19:11:27.498Z,24.00
2022-12-03T19:13:54.319Z,23.80
2022-12-03T19:16:23.374Z,23.77
2022-12-03T19:18:50.128Z,23.47
2022-12-03T19:21:18.318Z,25.50
2022-12-03T19:24:15.993Z,24.20
2022-12-03T19:26:32.198Z,25.20
2022-12-03T19:28:58.983Z,24.97
2022-12-03T19:31:26.108Z,26.07
2022-12-03T19:33:54.412Z,24.43
2022-12-03T19:36:29.822Z,25.10
2022-12-03T19:38:58.768Z,24.47
2022-12-03T19:41:27.444Z,25.70
2022-12-03T19:43:55.577Z,25.83
2022-12-03T19:46:24.175Z,24.50
2022-12-03T19:48:51.054Z,23.70
2022-12-03T19:51:33.998Z,24.50
2022-12-03T19:54:01.333Z,23.30
2022-12-03T19:56:30.428Z,25.37
2022-12-03T19:58:57.897Z,24.57
2022-12-03T20:01:27.969Z,23.50
2022-12-03T20:03:56.987Z,25.57
2022-12-03T20:06:26.624Z,23.67
2022-12-03T20:09:02.108Z,24.47
2022-12-03T20:11:32.387Z,26.23
2022-12-03T20:14:01.571Z,25.47
2022-12-03T20:16:29.341Z,24.50
2022-12-03T20:18:59.109Z,24.10
2022-12-03T20:21:26.807Z,24.47
2022-12-03T20:23:53.678Z,25.80
2022-12-03T20:26:22.000Z,25.93
2022-12-03T20:28:49.195Z,25.77
2022-12-03T20:31:18.967Z,26.43
2022-12-03T20:33:48.095Z,25.30
2022-12-03T20:36:17.119Z,25.87
2022-12-03T20:38:44.410Z,24.63
2022-12-03T20:41:14.212Z,24.80
2022-12-03T20:43:41.157Z,26.37
2022-12-03T20:46:08.955Z,26.17
2022-12-03T20:48:36.031Z,25.27
2022-12-03T20:51:04.955Z,25.90
2022-12-03T20:53:31.967Z,24.63
2022-12-03T20:55:59.926Z,25.23
2022-12-03T20:58:27.583Z,25.10
2022-12-03T21:00:54.768Z,26.40
2022-12-03T21:03:21.658Z,27.87
2022-12-03T21:05:48.390Z,27.43
2022-12-03T21:08:15.203Z,27.07
2022-12-03T21:10:45.989Z,26.83
2022-12-03T21:13:17.604Z,25.30
2022-12-03T21:15:47.928Z,26.80
2022-12-03T21:18:16.668Z,26.37
2022-12-03T21:20:47.536Z,26.93
2022-12-03T21:23:14.804Z,26.73
2022-12-03T21:25:41.648Z,26.60
2022-12-03T21:28:09.794Z,27.90
2022-12-03T21:30:39.990Z,26.40
2022-12-03T21:33:07.224Z,26.23
2022-12-03T21:35:37.453Z,26.57
2022-12-03T21:38:04.627Z,27.07
2022-12-03T21:40:31.491Z,25.70
2022-12-03T21:42:58.250Z,28.23
2022-12-03T21:45:25.099Z,27.53
2022-12-03T21:47:52.098Z,27.63
2022-12-03T21:50:19.173Z,28.87
2022-12-03T21:52:45.896Z,31.00
2022-12-03T21:55:12.646Z,25.87
2022-12-03T21:57:39.466Z,28.93
2022-12-03T22:00:08.464Z,27.97
2022-12-03T22:02:35.268Z,29.77
2022-12-03T22:05:01.954Z,26.90
2022-12-03T22:07:28.694Z,28.13
2022-12-03T22:09:55.703Z,28.07
2022-12-03T22:12:22.578Z,28.03
2022-12-03T22:14:49.299Z,28.50
2022-12-03T22:17:15.993Z,28.17
2022-12-03T22:19:42.787Z,27.47
2022-12-03T22:22:09.540Z,27.20
2022-12-03T22:24:36.221Z,29.07
2022-12-03T22:27:03.998Z,29.17
2022-12-03T22:29:31.103Z,29.37
2022-12-03T22:31:57.838Z,28.47
2022-12-03T22:34:24.581Z,27.60
2022-12-03T22:36:51.426Z,29.57
2022-12-03T22:39:18.194Z,29.70
2022-12-03T22:41:44.871Z,29.33
2022-12-03T22:44:11.632Z,28.00
2022-12-03T22:46:38.412Z,30.10
2022-12-03T22:49:07.308Z,30.03
2022-12-03T22:51:34.547Z,31.37
2022-12-03T22:54:02.018Z,30.93
2022-12-03T22:56:30.338Z,66.27
2022-12-03T22:58:57.055Z,52.60
2022-12-03T23:01:30.293Z,62.30
2022-12-03T23:03:57.379Z,48.87
2022-12-03T23:06:24.395Z,35.07
2022-12-03T23:08:52.031Z,30.70
2022-12-03T23:11:19.646Z,41.00
2022-12-03T23:13:47.051Z,36.90
2022-12-03T23:16:19.908Z,32.50
2022-12-03T23:18:46.730Z,30.20
2022-12-03T23:21:19.231Z,28.90
2022-12-03T23:23:48.415Z,31.93
2022-12-03T23:26:16.071Z,30.00
2022-12-03T23:28:45.419Z,31.17
2022-12-03T23:31:18.144Z,30.83
2022-12-03T23:33:45.264Z,29.43
2022-12-03T23:36:12.584Z,30.37
2022-12-03T23:38:40.145Z,29.83
2022-12-03T23:41:08.886Z,30.13
2022-12-03T23:43:35.714Z,30.40
2022-12-03T23:46:08.332Z,29.20
2022-12-03T23:48:36.251Z,29.80
2022-12-03T23:51:12.052Z,29.47
2022-12-03T23:53:39.778Z,30.23
2022-12-03T23:56:11.635Z,31.77
2022-12-03T23:58:38.683Z,29.03
